Time;durP1;ratioP1;P1;durP2;ratioP2;P2;SDS_P1;SDS_P2;PMS_P1;PMS_P2;Temp;Humidity;BMP_temperature;BMP_pressure;BME280_temperature;BME280_humidity;BME280_pressure;Samples;Min_cycle;Max_cycle;Signal;HPM_P1;HPM_P2
2023/09/17 00:01:25;;;;;;;4.75;4.10;;;22.40;99.90;;;;;;5053868;28;20236;-68
2023/09/17 00:03:54;;;;;;;5.07;4.55;;;22.40;99.90;;;;;;5055380;28;20251;-69
2023/09/17 00:06:20;;;;;;;5.05;4.57;;;22.40;99.90;;;;;;5052865;28;20196;-68
2023/09/17 00:08:48;;;;;;;5.20;4.57;;;22.40;99.90;;;;;;5055010;28;20264;-69
2023/09/17 00:11:14;;;;;;;5.00;4.32;;;22.50;99.90;;;;;;5052893;28;20197;-68
2023/09/17 00:13:41;;;;;;;5.00;4.50;;;22.50;99.90;;;;;;5054918;28;20209;-71
2023/09/17 00:16:10;;;;;;;6.28;4.57;;;22.50;99.90;;;;;;5053268;28;20177;-70
2023/09/17 00:18:38;;;;;;;4.40;4.00;;;22.50;99.90;;;;;;5053856;28;20208;-71
2023/09/17 00:21:06;;;;;;;4.78;4.00;;;22.50;99.90;;;;;;5037256;28;20428;-73
2023/09/17 00:23:34;;;;;;;4.55;3.95;;;22.50;99.90;;;;;;5053536;28;20177;-67
2023/09/17 00:25:59;;;;;;;4.65;4.03;;;22.40;99.90;;;;;;5050509;28;20326;-69
2023/09/17 00:28:25;;;;;;;3.50;3.17;;;22.40;99.90;;;;;;5053219;28;20260;-71
2023/09/17 00:30:51;;;;;;;4.35;3.38;;;22.40;99.90;;;;;;5052614;28;20177;-71
2023/09/17 00:33:18;;;;;;;4.80;3.85;;;22.40;99.90;;;;;;5053393;28;20284;-67
2023/09/17 00:35:49;;;;;;;3.65;3.30;;;22.40;99.90;;;;;;5038703;28;20189;-72
2023/09/17 00:38:14;;;;;;;5.05;3.53;;;22.40;99.90;;;;;;5051923;28;20247;-70
2023/09/17 00:40:41;;;;;;;4.05;3.65;;;22.40;99.90;;;;;;5036752;28;20197;-71
2023/09/17 00:43:07;;;;;;;3.80;3.40;;;22.40;99.90;;;;;;5052244;28;20184;-68
2023/09/17 00:45:35;;;;;;;4.45;3.58;;;22.40;99.90;;;;;;5037889;28;20969;-70
2023/09/17 00:48:04;;;;;;;4.00;3.60;;;22.40;99.90;;;;;;5052253;28;20174;-70
2023/09/17 00:50:31;;;;;;;3.50;3.20;;;22.40;99.90;;;;;;5053126;28;20267;-71
2023/09/17 00:52:57;;;;;;;3.63;3.33;;;22.40;99.90;;;;;;5036496;28;20261;-71
2023/09/17 00:55:23;;;;;;;3.95;3.35;;;22.40;99.90;;;;;;5034889;28;20216;-70
2023/09/17 00:57:49;;;;;;;5.90;3.63;;;22.40;99.90;;;;;;5056162;28;20220;-70
2023/09/17 01:00:21;;;;;;;3.83;3.17;;;22.40;99.90;;;;;;5052442;28;20189;-70
2023/09/17 01:02:47;;;;;;;4.20;3.80;;;22.40;99.90;;;;;;5053797;28;20185;-69
2023/09/17 01:05:13;;;;;;;4.18;3.75;;;22.40;99.90;;;;;;5035829;28;20253;-71
2023/09/17 01:07:39;;;;;;;5.80;3.95;;;22.40;99.90;;;;;;5052940;28;20276;-67
2023/09/17 01:10:05;;;;;;;4.20;3.80;;;22.30;99.90;;;;;;5052169;28;20215;-70
2023/09/17 01:12:38;;;;;;;5.45;4.05;;;22.30;99.90;;;;;;5055942;28;20280;-65
2023/09/17 01:15:12;;;;;;;3.70;3.33;;;22.30;99.90;;;;;;5053351;28;20212;-69
2023/09/17 01:17:38;;;;;;;4.10;3.53;;;22.30;99.90;;;;;;5053116;28;20211;-67
2023/09/17 01:20:29;;;;;;;4.85;3.78;;;22.30;99.90;;;;;;5052441;28;20177;-70
2023/09/17 01:23:00;;;;;;;3.72;3.42;;;22.30;99.90;;;;;;5052339;28;20269;-70
2023/09/17 01:25:48;;;;;;;4.10;3.70;;;22.30;99.90;;;;;;5050121;28;20472;-66
2023/09/17 01:28:17;;;;;;;4.90;3.70;;;22.30;99.90;;;;;;5054094;28;20254;-70
2023/09/17 01:30:45;;;;;;;3.78;3.38;;;22.30;99.90;;;;;;5050823;28;20201;-70
2023/09/17 01:33:11;;;;;;;5.18;4.00;;;22.30;99.90;;;;;;5054082;28;20208;-71
2023/09/17 01:36:16;;;;;;;4.32;3.60;;;22.20;99.90;;;;;;5052003;28;20182;-68
2023/09/17 01:38:52;;;;;;;5.03;4.10;;;22.20;99.90;;;;;;5045312;28;20189;-66
2023/09/17 01:41:19;;;;;;;4.47;3.83;;;22.20;99.90;;;;;;5054260;28;20272;-69
2023/09/17 01:43:47;;;;;;;4.03;3.63;;;22.20;99.90;;;;;;5052635;28;20193;-66
2023/09/17 01:46:16;;;;;;;4.75;3.58;;;22.20;99.90;;;;;;5051970;28;20225;-70
2023/09/17 01:48:42;;;;;;;4.30;3.60;;;22.20;99.90;;;;;;5054544;28;20177;-66
2023/09/17 01:51:11;;;;;;;4.45;3.90;;;22.20;99.90;;;;;;5054109;28;20197;-70
2023/09/17 01:53:40;;;;;;;4.25;3.80;;;22.10;99.90;;;;;;5052351;28;20945;-69
2023/09/17 01:56:07;;;;;;;4.93;4.25;;;22.10;99.90;;;;;;5052058;28;20206;-70
2023/09/17 01:58:33;;;;;;;5.38;4.30;;;22.10;99.90;;;;;;5051670;28;20264;-69
2023/09/17 02:00:59;;;;;;;4.20;3.80;;;22.10;99.90;;;;;;5052144;28;20200;-66
2023/09/17 02:03:25;;;;;;;4.53;4.13;;;22.10;99.90;;;;;;5051532;28;20201;-70
2023/09/17 02:05:51;;;;;;;6.07;4.57;;;22.00;99.90;;;;;;5052041;28;20189;-70
2023/09/17 02:08:19;;;;;;;5.13;4.03;;;22.00;99.90;;;;;;5034330;28;20196;-71
2023/09/17 02:10:47;;;;;;;5.13;4.63;;;22.00;99.90;;;;;;5052861;28;20249;-71
2023/09/17 02:13:12;;;;;;;5.32;4.80;;;22.00;99.90;;;;;;5049601;28;20491;-70
2023/09/17 02:15:38;;;;;;;4.70;4.30;;;22.00;99.90;;;;;;5052261;28;20196;-70
2023/09/17 02:18:06;;;;;;;5.13;4.32;;;22.00;99.90;;;;;;5053582;28;20189;-67
2023/09/17 02:20:33;;;;;;;4.80;4.30;;;21.90;99.90;;;;;;5057118;28;20220;-70
2023/09/17 02:23:01;;;;;;;4.75;4.00;;;21.90;99.90;;;;;;5056270;28;20247;-65
2023/09/17 02:25:26;;;;;;;4.90;4.45;;;21.90;99.90;;;;;;5048331;28;20253;-67
2023/09/17 02:27:52;;;;;;;4.65;4.22;;;21.90;99.90;;;;;;5057260;28;20197;-66
2023/09/17 02:30:22;;;;;;;4.95;4.40;;;21.90;99.90;;;;;;5043770;28;20177;-67
2023/09/17 02:32:48;;;;;;;5.78;4.30;;;21.90;99.90;;;;;;5060940;28;20177;-68
2023/09/17 02:35:13;;;;;;;4.95;4.28;;;21.90;99.90;;;;;;5060748;28;20258;-68
2023/09/17 02:37:39;;;;;;;4.90;4.40;;;21.90;99.90;;;;;;5056889;28;20188;-70
2023/09/17 02:40:08;;;;;;;5.20;4.70;;;21.90;99.90;;;;;;5058671;28;20204;-71
2023/09/17 02:42:37;;;;;;;5.40;4.32;;;21.90;99.90;;;;;;5061031;28;20212;-71
2023/09/17 02:45:08;;;;;;;4.90;4.38;;;21.90;99.90;;;;;;5058058;28;20192;-70
2023/09/17 02:47:34;;;;;;;4.97;4.00;;;21.90;99.90;;;;;;5058130;28;20280;-68
2023/09/17 02:50:00;;;;;;;4.95;4.43;;;21.90;99.90;;;;;;5058089;28;20276;-65
2023/09/17 02:52:26;;;;;;;6.38;5.28;;;22.00;99.90;;;;;;5056885;28;20197;-68
2023/09/17 02:54:55;;;;;;;5.10;4.60;;;22.00;99.90;;;;;;5054605;28;20275;-71
2023/09/17 02:57:21;;;;;;;5.47;4.55;;;22.00;99.90;;;;;;5058125;28;20316;-69
2023/09/17 02:59:47;;;;;;;5.40;4.80;;;22.00;99.90;;;;;;5058556;28;20307;-70
2023/09/17 03:02:14;;;;;;;5.45;4.75;;;22.00;99.90;;;;;;5057473;28;20173;-71
2023/09/17 03:04:40;;;;;;;5.15;4.65;;;22.00;99.90;;;;;;5057472;28;20188;-71
2023/09/17 03:07:06;;;;;;;5.30;4.47;;;22.00;99.90;;;;;;5057198;28;20173;-69
2023/09/17 03:09:31;;;;;;;5.22;4.70;;;22.00;99.90;;;;;;5058229;28;20245;-69
2023/09/17 03:11:59;;;;;;;4.72;4.32;;;22.00;99.90;;;;;;5058904;28;20180;-70
2023/09/17 03:14:25;;;;;;;5.38;4.72;;;22.00;99.90;;;;;;5057433;28;20201;-66
2023/09/17 03:16:54;;;;;;;5.88;4.22;;;22.00;99.90;;;;;;5055785;28;20199;-70
2023/09/17 03:19:19;;;;;;;5.35;4.35;;;22.00;99.90;;;;;;5059430;28;20173;-70
2023/09/17 03:21:47;;;;;;;4.88;4.38;;;22.00;99.90;;;;;;5059026;28;20235;-71
2023/09/17 03:24:18;;;;;;;4.60;4.20;;;22.00;99.90;;;;;;5058856;28;20183;-70
2023/09/17 03:26:46;;;;;;;5.15;4.65;;;22.00;99.90;;;;;;5058643;28;20170;-71
2023/09/17 03:29:13;;;;;;;4.82;4.32;;;22.00;99.90;;;;;;5054948;28;20198;-70
2023/09/17 03:31:41;;;;;;;4.57;4.07;;;22.00;99.90;;;;;;5053820;28;20223;-65
2023/09/17 03:34:09;;;;;;;5.38;4.63;;;21.90;99.90;;;;;;5053729;28;20194;-68
2023/09/17 03:36:37;;;;;;;5.07;4.57;;;21.90;99.90;;;;;;5054617;28;20177;-68
2023/09/17 03:39:05;;;;;;;5.30;4.80;;;21.90;99.90;;;;;;5055123;28;20200;-70
2023/09/17 03:41:32;;;;;;;5.05;4.55;;;21.90;99.90;;;;;;5054511;28;20177;-69
2023/09/17 03:44:02;;;;;;;4.88;4.43;;;21.80;99.90;;;;;;5053900;28;20181;-69
2023/09/17 03:46:30;;;;;;;5.00;4.60;;;21.80;99.90;;;;;;5052354;28;20504;-60
2023/09/17 03:49:00;;;;;;;5.40;4.60;;;21.80;99.90;;;;;;5067925;28;20174;-68
2023/09/17 03:51:28;;;;;;;5.40;4.90;;;21.80;99.90;;;;;;5054866;28;20173;-69
2023/09/17 03:53:57;;;;;;;5.50;4.80;;;21.80;99.90;;;;;;5044418;28;20245;-69
2023/09/17 03:56:27;;;;;;;5.10;4.60;;;21.70;99.90;;;;;;5054991;28;20241;-68
2023/09/17 03:58:55;;;;;;;5.47;4.97;;;21.70;99.90;;;;;;5054548;28;20217;-70
2023/09/17 04:01:21;;;;;;;5.20;4.68;;;21.70;99.90;;;;;;5036355;28;20224;-70
2023/09/17 04:03:48;;;;;;;4.80;4.38;;;21.70;99.90;;;;;;5054863;28;20348;-64
2023/09/17 04:06:16;;;;;;;4.70;4.30;;;21.60;99.90;;;;;;5044871;28;20174;-66
2023/09/17 04:08:44;;;;;;;5.25;4.72;;;21.60;99.90;;;;;;5052322;28;20201;-65
2023/09/17 04:11:15;;;;;;;5.50;4.70;;;21.60;99.90;;;;;;5070376;28;20444;-68
2023/09/17 04:13:45;;;;;;;4.82;4.43;;;21.60;99.90;;;;;;5054776;28;20227;-66
2023/09/17 04:16:12;;;;;;;5.55;4.57;;;21.60;99.90;;;;;;5052904;28;20189;-67
2023/09/17 04:18:38;;;;;;;5.25;4.72;;;21.60;99.90;;;;;;5052925;28;20201;-69
2023/09/17 04:21:04;;;;;;;4.72;4.32;;;21.60;99.90;;;;;;5054336;28;20185;-70
2023/09/17 04:23:32;;;;;;;4.63;4.22;;;21.60;99.90;;;;;;5052672;28;20206;-66
2023/09/17 04:26:00;;;;;;;6.00;4.70;;;21.50;99.90;;;;;;5054606;28;20181;-68
2023/09/17 04:28:29;;;;;;;4.90;4.40;;;21.50;99.90;;;;;;5054198;28;20188;-69
2023/09/17 04:30:57;;;;;;;5.38;4.88;;;21.50;99.90;;;;;;5053887;28;20185;-69
2023/09/17 04:33:23;;;;;;;5.03;4.53;;;21.50;99.90;;;;;;5055013;28;20216;-69
2023/09/17 04:35:56;;;;;;;4.88;4.25;;;21.50;99.90;;;;;;5053042;28;20181;-69
2023/09/17 04:38:22;;;;;;;4.95;4.45;;;21.50;99.90;;;;;;5054916;28;20269;-69
2023/09/17 04:40:50;;;;;;;4.65;4.25;;;21.40;99.90;;;;;;5053206;28;20269;-70
2023/09/17 04:43:16;;;;;;;5.20;4.45;;;21.50;99.90;;;;;;5054325;28;20224;-68
2023/09/17 04:45:42;;;;;;;4.85;4.35;;;21.50;99.90;;;;;;5055384;28;20182;-67
2023/09/17 04:48:09;;;;;;;5.20;4.70;;;21.50;99.90;;;;;;5055523;28;20421;-69
2023/09/17 04:50:34;;;;;;;5.25;4.43;;;21.50;99.90;;;;;;5053055;28;20182;-67
2023/09/17 04:53:00;;;;;;;4.95;4.47;;;21.40;99.90;;;;;;5053307;28;20267;-70
2023/09/17 04:55:26;;;;;;;6.63;5.30;;;21.40;99.90;;;;;;5053247;28;20233;-69
2023/09/17 04:57:52;;;;;;;9.95;8.80;;;21.40;99.90;;;;;;5052043;28;20180;-69
2023/09/17 05:00:22;;;;;;;7.68;6.97;;;21.40;99.90;;;;;;5053753;28;20201;-70
2023/09/17 05:02:51;;;;;;;6.57;5.88;;;21.40;99.90;;;;;;5035788;28;20165;-69
2023/09/17 05:05:19;;;;;;;7.20;5.80;;;21.40;99.90;;;;;;5053546;28;20181;-68
2023/09/17 05:07:48;;;;;;;5.80;5.30;;;21.40;99.90;;;;;;5037322;28;20208;-65
2023/09/17 05:10:15;;;;;;;5.68;5.13;;;21.40;99.90;;;;;;5040065;28;20184;-70
2023/09/17 05:12:41;;;;;;;5.68;5.18;;;21.30;99.90;;;;;;5051440;28;20189;-65
2023/09/17 05:15:14;;;;;;;9.07;8.15;;;21.30;99.90;;;;;;5050516;28;20271;-69
2023/09/17 05:17:42;;;;;;;12.80;11.40;;;21.20;99.90;;;;;;5044231;28;20174;-69
2023/09/17 05:20:08;;;;;;;7.65;6.85;;;21.20;99.90;;;;;;5042741;28;20180;-66
2023/09/17 05:22:34;;;;;;;6.22;5.63;;;21.20;99.90;;;;;;5052165;28;20373;-68
2023/09/17 05:25:06;;;;;;;5.95;5.38;;;21.20;99.90;;;;;;5037521;28;20173;-64
2023/09/17 05:27:32;;;;;;;5.75;5.22;;;21.10;99.90;;;;;;5051130;28;20188;-64
2023/09/17 05:29:59;;;;;;;8.90;6.88;;;21.10;99.90;;;;;;5051371;28;20177;-68
2023/09/17 05:32:25;;;;;;;21.48;16.50;;;21.10;99.90;;;;;;5051494;28;20272;-64
2023/09/17 05:34:51;;;;;;;11.57;10.15;;;21.00;99.90;;;;;;5054755;28;20419;-67
2023/09/17 05:37:16;;;;;;;8.23;7.40;;;21.00;99.90;;;;;;5042523;28;20259;-68
2023/09/17 05:39:42;;;;;;;7.50;6.05;;;21.00;99.90;;;;;;5052411;28;20181;-69
2023/09/17 05:42:10;;;;;;;5.95;5.35;;;20.90;99.90;;;;;;5055347;28;20189;-69
2023/09/17 05:44:38;;;;;;;6.25;5.28;;;20.90;99.90;;;;;;5044349;28;20216;-69
2023/09/17 05:47:03;;;;;;;5.57;5.03;;;20.90;99.90;;;;;;5052311;28;20188;-69
2023/09/17 05:49:29;;;;;;;6.50;4.90;;;20.90;99.90;;;;;;5070696;28;20197;-69
2023/09/17 05:51:59;;;;;;;6.70;4.70;;;20.90;99.90;;;;;;5052640;28;20204;-68
2023/09/17 05:54:25;;;;;;;4.97;4.47;;;20.90;99.90;;;;;;5050314;28;20196;-68
2023/09/17 05:56:51;;;;;;;5.03;4.60;;;20.90;99.90;;;;;;5050024;28;20223;-66
2023/09/17 05:59:19;;;;;;;4.90;4.40;;;21.00;99.90;;;;;;5052280;28;20279;-71
2023/09/17 06:01:44;;;;;;;5.18;4.43;;;21.00;99.90;;;;;;5051408;28;20216;-69
2023/09/17 06:04:10;;;;;;;5.22;4.72;;;21.00;99.90;;;;;;5050788;28;20186;-65
2023/09/17 06:06:36;;;;;;;5.80;5.10;;;21.00;99.90;;;;;;5039463;28;20191;-71
2023/09/17 06:09:01;;;;;;;5.57;4.63;;;21.00;99.90;;;;;;5051395;28;20200;-69
2023/09/17 06:11:27;;;;;;;5.45;4.95;;;21.00;99.90;;;;;;5051752;28;20215;-71
2023/09/17 06:13:55;;;;;;;5.28;4.43;;;21.10;99.90;;;;;;5051766;28;20197;-68
2023/09/17 06:16:20;;;;;;;4.85;4.40;;;21.10;99.90;;;;;;5050292;28;20181;-73
2023/09/17 06:18:48;;;;;;;5.13;4.40;;;21.10;99.90;;;;;;5050536;28;20187;-68
2023/09/17 06:21:14;;;;;;;5.07;4.53;;;21.10;99.90;;;;;;5049807;28;20204;-71
2023/09/17 06:23:44;;;;;;;6.22;4.45;;;21.10;99.90;;;;;;5052933;28;20272;-69
2023/09/17 06:26:11;;;;;;;4.65;4.25;;;21.20;99.90;;;;;;5039165;28;20484;-73
2023/09/17 06:28:36;;;;;;;4.70;4.22;;;21.20;99.90;;;;;;5052499;28;20201;-72
2023/09/17 06:31:02;;;;;;;5.03;4.53;;;21.30;99.90;;;;;;5051717;28;20191;-71
2023/09/17 06:33:29;;;;;;;4.82;4.18;;;21.30;99.90;;;;;;5048801;28;20205;-69
2023/09/17 06:35:57;;;;;;;4.85;4.35;;;21.30;99.90;;;;;;5052475;28;20209;-72
2023/09/17 06:38:25;;;;;;;5.25;4.75;;;21.40;99.90;;;;;;5052100;28;20197;-72
2023/09/17 06:40:53;;;;;;;4.43;4.03;;;21.40;99.90;;;;;;5050823;28;20177;-70
2023/09/17 06:43:18;;;;;;;4.95;4.45;;;21.50;99.90;;;;;;5035219;28;20177;-70
2023/09/17 06:45:49;;;;;;;4.60;4.20;;;21.50;99.90;;;;;;5034738;28;20174;-73
2023/09/17 06:48:14;;;;;;;4.95;4.30;;;21.50;99.90;;;;;;5051707;28;20170;-72
2023/09/17 06:50:40;;;;;;;4.30;3.90;;;21.50;99.90;;;;;;5032972;28;20181;-71
2023/09/17 06:53:08;;;;;;;4.70;4.30;;;21.60;99.90;;;;;;5066256;28;20169;-66
2023/09/17 06:55:34;;;;;;;4.97;4.30;;;21.60;99.90;;;;;;5051771;28;20319;-70
2023/09/17 06:58:02;;;;;;;4.60;4.18;;;21.60;99.90;;;;;;5051183;28;20273;-72
2023/09/17 07:00:28;;;;;;;4.40;4.00;;;21.60;99.90;;;;;;5054344;28;20194;-72
2023/09/17 07:02:56;;;;;;;4.93;4.20;;;21.70;99.90;;;;;;5034596;28;20188;-72
2023/09/17 07:05:24;;;;;;;4.80;4.30;;;21.70;99.90;;;;;;5050350;28;20259;-71
2023/09/17 07:07:52;;;;;;;5.20;4.70;;;21.70;99.90;;;;;;5055625;28;20193;-72
2023/09/17 07:10:18;;;;;;;4.35;3.90;;;21.80;99.90;;;;;;5055329;28;20188;-71
2023/09/17 07:12:45;;;;;;;4.57;4.18;;;21.80;99.90;;;;;;5054868;28;20181;-72
2023/09/17 07:15:12;;;;;;;3.80;3.50;;;21.80;99.90;;;;;;5071507;28;20306;-70
2023/09/17 07:17:39;;;;;;;3.95;3.55;;;21.90;99.90;;;;;;5055145;28;20201;-71
2023/09/17 07:20:11;;;;;;;4.13;3.53;;;21.90;99.90;;;;;;5054138;28;20173;-71
2023/09/17 07:22:37;;;;;;;4.28;3.88;;;22.00;99.90;;;;;;5053904;28;20211;-71
2023/09/17 07:25:05;;;;;;;4.75;3.67;;;22.00;99.90;;;;;;5053903;28;20272;-72
2023/09/17 07:27:32;;;;;;;4.25;3.85;;;22.10;99.90;;;;;;5052039;28;20174;-69
2023/09/17 07:29:58;;;;;;;4.72;3.78;;;22.10;99.90;;;;;;5054042;28;20221;-71
2023/09/17 07:32:28;;;;;;;4.03;3.63;;;22.10;99.90;;;;;;5056498;28;20248;-70
2023/09/17 07:34:54;;;;;;;5.35;4.85;;;22.20;99.90;;;;;;5054341;28;20266;-70
2023/09/17 07:37:20;;;;;;;5.13;4.60;;;22.30;99.90;;;;;;5056537;28;20177;-70
2023/09/17 07:39:47;;;;;;;4.15;3.75;;;22.30;99.90;;;;;;5054957;28;20213;-70
2023/09/17 07:42:13;;;;;;;4.25;3.42;;;22.30;99.90;;;;;;5055292;28;20182;-71
2023/09/17 07:44:40;;;;;;;5.88;3.25;;;22.40;99.90;;;;;;5054952;28;20185;-69
2023/09/17 07:47:09;;;;;;;5.22;3.65;;;22.40;99.90;;;;;;5054678;28;21327;-72
2023/09/17 07:49:36;;;;;;;3.72;3.42;;;22.50;99.90;;;;;;5053715;28;20215;-69
2023/09/17 07:52:05;;;;;;;3.75;3.45;;;22.60;99.90;;;;;;5054456;28;20311;-72
2023/09/17 07:54:36;;;;;;;3.90;3.33;;;22.60;99.90;;;;;;5053553;28;20239;-69
2023/09/17 07:57:04;;;;;;;4.20;3.40;;;22.60;99.90;;;;;;5056205;28;20170;-72
2023/09/17 07:59:30;;;;;;;4.28;3.50;;;22.70;99.90;;;;;;5052500;28;20178;-71
2023/09/17 08:01:56;;;;;;;4.65;3.60;;;22.70;99.90;;;;;;5053242;28;20212;-72
2023/09/17 08:04:27;;;;;;;4.13;3.67;;;22.70;99.90;;;;;;5053976;28;20188;-72
2023/09/17 08:06:56;;;;;;;3.60;3.30;;;22.80;99.90;;;;;;5053650;28;20205;-72
2023/09/17 08:09:22;;;;;;;5.93;4.97;;;22.90;99.90;;;;;;5054245;28;20197;-71
2023/09/17 08:11:49;;;;;;;4.55;3.83;;;22.90;99.90;;;;;;5040355;28;20182;-72
2023/09/17 08:14:15;;;;;;;3.90;3.50;;;22.90;99.90;;;;;;5053255;28;20227;-72
2023/09/17 08:16:41;;;;;;;3.45;3.15;;;23.00;99.90;;;;;;5041986;28;20173;-71
2023/09/17 08:19:06;;;;;;;3.45;3.15;;;23.00;99.90;;;;;;5053088;28;20226;-70
2023/09/17 08:21:32;;;;;;;4.20;3.08;;;23.10;99.90;;;;;;5053893;28;20217;-71
2023/09/17 08:23:59;;;;;;;3.85;2.92;;;23.20;99.90;;;;;;5052949;28;20228;-70
2023/09/17 08:26:27;;;;;;;3.25;2.95;;;23.30;99.90;;;;;;5054271;28;20199;-71
2023/09/17 08:28:56;;;;;;;3.10;2.80;;;23.30;99.90;;;;;;5053751;28;20177;-71
2023/09/17 08:31:25;;;;;;;4.15;3.45;;;23.40;99.90;;;;;;5069308;28;20216;-71
2023/09/17 08:33:51;;;;;;;4.05;3.10;;;23.50;99.90;;;;;;5036907;28;20235;-71
2023/09/17 08:36:21;;;;;;;4.05;3.53;;;23.60;99.90;;;;;;5053593;28;20272;-71
2023/09/17 08:38:54;;;;;;;4.75;4.22;;;23.60;99.90;;;;;;5042896;28;20232;-70
2023/09/17 08:41:23;;;;;;;3.63;3.28;;;23.70;99.90;;;;;;5054357;28;20169;-68
2023/09/17 08:43:53;;;;;;;3.25;2.90;;;23.70;99.90;;;;;;5052376;28;20177;-72
2023/09/17 08:46:22;;;;;;;4.32;3.03;;;23.80;99.90;;;;;;5053425;28;20205;-72
2023/09/17 08:48:48;;;;;;;2.75;2.45;;;23.80;99.90;;;;;;5051327;28;20189;-73
2023/09/17 08:51:18;;;;;;;4.72;2.75;;;23.80;99.90;;;;;;5051379;28;20228;-71
2023/09/17 08:54:33;;;;;;;3.13;2.83;;;23.90;99.90;;;;;;5052887;28;20201;-71
2023/09/17 08:57:05;;;;;;;3.25;2.95;;;23.90;99.90;;;;;;5048310;28;20182;-70
2023/09/17 08:59:38;;;;;;;10.25;7.22;;;24.00;99.90;;;;;;5051731;28;20177;-71
2023/09/17 09:02:10;;;;;;;11.85;8.38;;;24.10;99.90;;;;;;5037848;28;20181;-69
2023/09/17 09:04:37;;;;;;;6.38;5.10;;;24.20;99.90;;;;;;5050954;28;20169;-70
2023/09/17 09:07:04;;;;;;;6.97;5.35;;;24.30;99.90;;;;;;5052445;28;20212;-69
2023/09/17 09:09:31;;;;;;;5.68;4.65;;;24.30;99.90;;;;;;5052373;28;20307;-64
2023/09/17 09:11:57;;;;;;;4.18;3.72;;;24.40;99.90;;;;;;5053487;28;20181;-65
2023/09/17 09:14:23;;;;;;;3.70;3.30;;;24.50;99.90;;;;;;5052515;28;20208;-66
2023/09/17 09:16:49;;;;;;;3.25;2.78;;;24.60;99.90;;;;;;5052389;28;20178;-65
2023/09/17 09:19:17;;;;;;;3.20;2.90;;;24.70;99.90;;;;;;5052048;28;20188;-67
2023/09/17 09:21:45;;;;;;;2.60;2.40;;;24.80;99.90;;;;;;5052348;28;20208;-66
2023/09/17 09:24:10;;;;;;;2.60;2.40;;;24.90;99.90;;;;;;5066662;28;20771;-66
2023/09/17 09:26:38;;;;;;;2.47;2.22;;;24.90;99.90;;;;;;5052387;28;20941;-66
2023/09/17 09:29:08;;;;;;;3.60;2.25;;;25.00;99.90;;;;;;5050183;28;20208;-66
2023/09/17 09:31:34;;;;;;;2.70;2.20;;;25.10;99.90;;;;;;5051842;28;20177;-65
2023/09/17 09:34:01;;;;;;;2.40;2.20;;;25.20;99.90;;;;;;5052436;28;20278;-66
2023/09/17 09:36:28;;;;;;;2.78;2.50;;;25.30;99.90;;;;;;5050150;28;20170;-66
2023/09/17 09:38:57;;;;;;;2.53;2.33;;;25.40;99.90;;;;;;5054335;28;20287;-65
2023/09/17 09:41:29;;;;;;;2.58;2.13;;;25.50;99.90;;;;;;5053363;28;20239;-66
2023/09/17 09:43:59;;;;;;;2.83;2.20;;;25.80;99.90;;;;;;5052436;28;20189;-65
2023/09/17 09:46:28;;;;;;;3.17;2.00;;;26.30;99.90;;;;;;5051246;28;20230;-65
2023/09/17 09:49:05;;;;;;;2.45;2.25;;;26.90;99.90;;;;;;5051555;28;20247;-66
2023/09/17 09:51:31;;;;;;;2.70;2.50;;;27.50;99.90;;;;;;5052062;28;20217;-66
2023/09/17 09:53:57;;;;;;;3.00;2.38;;;28.00;99.90;;;;;;5053473;28;20236;-65
2023/09/17 09:56:27;;;;;;;2.50;2.03;;;28.60;99.90;;;;;;5056537;28;20219;-66
2023/09/17 09:58:56;;;;;;;2.65;2.45;;;29.10;99.90;;;;;;5053654;28;20231;-66
2023/09/17 10:01:27;;;;;;;3.25;2.20;;;29.50;99.90;;;;;;5051365;28;20212;-67
2023/09/17 10:03:57;;;;;;;2.22;2.03;;;29.70;99.90;;;;;;5038324;28;20192;-65
2023/09/17 10:06:23;;;;;;;2.10;1.90;;;29.90;99.90;;;;;;5044447;28;20182;-65
2023/09/17 10:08:52;;;;;;;3.95;1.80;;;30.00;99.90;;;;;;5056434;28;20185;-66
2023/09/17 10:11:19;;;;;;;2.28;2.08;;;30.20;99.90;;;;;;5036646;28;20220;-65
2023/09/17 10:13:45;;;;;;;2.20;2.00;;;30.40;99.90;;;;;;5046242;28;20216;-66
2023/09/17 10:16:12;;;;;;;2.72;2.22;;;30.60;99.90;;;;;;5050817;28;20181;-66
2023/09/17 10:18:42;;;;;;;2.60;2.20;;;30.80;99.90;;;;;;5051006;28;20287;-66
2023/09/17 10:21:11;;;;;;;3.28;2.38;;;30.90;99.90;;;;;;5051831;28;20977;-66
2023/09/17 10:23:38;;;;;;;2.33;2.13;;;31.20;99.90;;;;;;5053093;28;20262;-66
2023/09/17 10:26:04;;;;;;;2.22;2.03;;;31.30;99.90;;;;;;5050388;28;20197;-67
2023/09/17 10:28:34;;;;;;;3.08;2.30;;;31.30;99.90;;;;;;5050594;28;20201;-66
2023/09/17 10:31:06;;;;;;;2.17;1.98;;;31.30;99.90;;;;;;5050311;28;20180;-65
2023/09/17 10:33:34;;;;;;;1.95;1.85;;;31.40;99.90;;;;;;5051491;28;20193;-66
2023/09/17 10:36:01;;;;;;;2.70;2.05;;;31.30;99.90;;;;;;5051234;28;20248;-66
2023/09/17 10:38:32;;;;;;;3.30;2.10;;;31.40;99.90;;;;;;5050508;28;20192;-66
2023/09/17 10:41:01;;;;;;;3.20;1.98;;;31.30;99.90;;;;;;5044629;28;20185;-66
2023/09/17 10:43:27;;;;;;;2.35;2.00;;;31.30;99.90;;;;;;5055388;28;20179;-66
2023/09/17 10:45:58;;;;;;;1.88;1.77;;;31.30;99.90;;;;;;5055219;28;20200;-66
2023/09/17 10:48:28;;;;;;;2.63;1.98;;;31.20;99.90;;;;;;5039513;28;20173;-65
2023/09/17 10:50:54;;;;;;;3.63;1.95;;;31.20;99.90;;;;;;5054396;28;20264;-65
2023/09/17 10:53:20;;;;;;;1.92;1.58;;;31.30;99.90;;;;;;5054452;28;20273;-65
2023/09/17 10:55:54;;;;;;;1.90;1.67;;;31.30;99.90;;;;;;5053020;28;20361;-65
2023/09/17 10:58:38;;;;;;;1.50;1.40;;;31.30;99.90;;;;;;5044259;28;20184;-64
2023/09/17 11:01:09;;;;;;;2.70;1.40;;;31.40;99.90;;;;;;5053875;28;20270;-65
2023/09/17 11:03:39;;;;;;;1.73;1.45;;;31.40;99.90;;;;;;5053366;28;20193;-65
2023/09/17 11:06:16;;;;;;;2.03;1.42;;;31.60;99.90;;;;;;5054536;28;20177;-66
2023/09/17 11:08:46;;;;;;;2.72;1.60;;;31.70;99.90;;;;;;5053941;28;20200;-66
2023/09/17 11:11:17;;;;;;;3.38;1.60;;;31.80;99.90;;;;;;5055078;28;20211;-66
2023/09/17 11:13:46;;;;;;;2.22;1.50;;;31.80;99.90;;;;;;5055081;28;20274;-66
2023/09/17 11:16:18;;;;;;;2.08;1.67;;;31.80;99.90;;;;;;5055453;28;20254;-66
2023/09/17 11:19:13;;;;;;;1.70;1.60;;;31.80;99.90;;;;;;5054148;28;20177;-68
2023/09/17 11:21:46;;;;;;;1.70;1.60;;;31.90;99.90;;;;;;5069676;28;20278;-69
2023/09/17 11:24:13;;;;;;;1.63;1.52;;;31.90;99.90;;;;;;5053054;28;20184;-67
2023/09/17 11:26:41;;;;;;;1.92;1.60;;;31.90;99.90;;;;;;5054021;28;20216;-67
2023/09/17 11:29:08;;;;;;;1.70;1.60;;;32.00;99.90;;;;;;5051804;28;20189;-67
2023/09/17 11:31:53;;;;;;;2.45;2.25;;;32.10;99.90;;;;;;5055275;28;20185;-67
2023/09/17 11:34:23;;;;;;;2.13;1.92;;;32.20;99.90;;;;;;5053616;28;20278;-67
2023/09/17 11:36:50;;;;;;;2.95;1.88;;;32.30;99.90;;;;;;5052689;28;20473;-68
2023/09/17 11:39:21;;;;;;;1.83;1.70;;;32.40;99.90;;;;;;5053977;28;20192;-69
2023/09/17 11:41:52;;;;;;;1.83;1.50;;;32.40;99.90;;;;;;5054407;28;20267;-67
2023/09/17 11:44:20;;;;;;;1.40;1.30;;;32.40;99.90;;;;;;5053682;28;20192;-67
2023/09/17 11:46:48;;;;;;;1.42;1.30;;;32.40;99.90;;;;;;5052595;28;20185;-67
2023/09/17 11:49:18;;;;;;;1.60;1.40;;;32.40;99.90;;;;;;5054111;28;20184;-66
2023/09/17 11:51:47;;;;;;;1.30;1.20;;;32.40;99.90;;;;;;5051948;28;20255;-66
2023/09/17 11:54:15;;;;;;;1.50;1.40;;;32.30;99.90;;;;;;5051683;28;20200;-68
2023/09/17 11:57:01;;;;;;;1.50;1.40;;;32.20;99.90;;;;;;5052344;28;20200;-68
2023/09/17 11:59:28;;;;;;;1.30;1.20;;;32.20;99.90;;;;;;5054594;28;20176;-67
2023/09/17 12:01:56;;;;;;;1.40;1.10;;;32.10;99.90;;;;;;5054505;28;20181;-68
2023/09/17 12:04:27;;;;;;;1.17;1.02;;;32.10;99.90;;;;;;5054566;28;20200;-68
2023/09/17 12:06:54;;;;;;;1.52;1.30;;;32.20;99.90;;;;;;5055235;28;20181;-66
2023/09/17 12:10:04;;;;;;;1.40;1.30;;;32.20;99.90;;;;;;5053971;28;20177;-69
2023/09/17 12:12:12;;;;;;;1.85;1.45;;;32.20;99.90;;;;;;5048662;28;20264;-69
2023/09/17 12:14:37;;;;;;;1.38;1.27;;;32.20;99.90;;;;;;5054265;28;20197;-69
2023/09/17 12:17:06;;;;;;;1.83;1.23;;;32.10;99.90;;;;;;5040613;28;20422;-68
2023/09/17 12:19:32;;;;;;;2.22;1.80;;;32.00;99.90;;;;;;5039222;28;20216;-69
2023/09/17 12:22:00;;;;;;;1.45;1.20;;;31.90;99.90;;;;;;5053194;28;20185;-68
2023/09/17 12:24:54;;;;;;;1.60;1.30;;;31.90;99.90;;;;;;5054373;28;20203;-67
2023/09/17 12:29:55;;;;;;;1.38;1.27;;;31.60;99.90;;;;;;5053026;28;20181;-67
2023/09/17 12:32:25;;;;;;;1.35;1.20;;;31.60;99.90;;;;;;5054099;28;20274;-67
2023/09/17 12:34:53;;;;;;;2.22;1.67;;;31.60;99.90;;;;;;5053512;28;20204;-68
2023/09/17 12:37:20;;;;;;;1.35;1.25;;;31.60;99.90;;;;;;5053887;28;20219;-67
2023/09/17 12:39:46;;;;;;;1.55;1.40;;;31.60;99.90;;;;;;5053305;28;20208;-67
2023/09/17 12:42:13;;;;;;;1.52;1.40;;;31.60;99.90;;;;;;5055289;28;20204;-67
2023/09/17 12:44:41;;;;;;;2.17;1.40;;;31.50;99.90;;;;;;5054723;28;20253;-68
2023/09/17 12:47:10;;;;;;;1.80;1.30;;;31.50;99.90;;;;;;5053701;28;20217;-68
2023/09/17 12:49:36;;;;;;;1.50;1.40;;;31.60;99.90;;;;;;5054337;28;20204;-68
2023/09/17 12:52:02;;;;;;;1.85;1.40;;;31.70;99.90;;;;;;5053997;28;20208;-66
2023/09/17 12:54:28;;;;;;;2.95;1.40;;;31.60;99.90;;;;;;5055390;28;20223;-69